Time;durP1;ratioP1;P1;durP2;ratioP2;P2;SDS_P1;SDS_P2;PMS_P1;PMS_P2;Temp;Humidity;BMP_temperature;BMP_pressure;BME280_temperature;BME280_humidity;BME280_pressure;Samples;Min_cycle;Max_cycle;Signal;HPM_P1;HPM_P2
2022/06/15 00:03:09;;;;;;;0.30;0.30;;;;;;;19.95;58.23;96675.28;10373956;28;20493;-22
2022/06/15 00:08:11;;;;;;;0.25;0.20;;;;;;;20.15;59.37;96677.69;10373825;28;20037;-23
2022/06/15 00:13:11;;;;;;;0.32;0.30;;;;;;;20.25;58.01;96681.88;10372891;28;20196;-21
2022/06/15 00:18:11;;;;;;;0.20;0.20;;;;;;;20.10;57.97;96674.38;10374130;28;20593;-23
2022/06/15 00:23:12;;;;;;;0.30;0.30;;;;;;;20.03;57.87;96672.69;10373105;28;20034;-21
2022/06/15 00:28:12;;;;;;;0.40;0.40;;;;;;;19.98;57.94;96666.78;10371720;28;20500;-21
2022/06/15 00:33:12;;;;;;;0.37;0.37;;;;;;;19.96;57.80;96660.88;10382816;28;20065;-21
2022/06/15 00:38:13;;;;;;;0.30;0.30;;;;;;;19.95;57.97;96664.25;10377732;28;20332;-21
2022/06/15 00:43:14;;;;;;;0.60;0.35;;;;;;;19.92;57.99;96654.13;10385297;28;20296;-21
2022/06/15 00:48:14;;;;;;;0.60;0.50;;;;;;;19.96;57.93;96658.31;10368229;28;20094;-22
2022/06/15 00:53:14;;;;;;;0.45;0.45;;;;;;;19.95;57.82;96664.25;10394183;28;20038;-22
2022/06/15 00:58:15;;;;;;;0.50;0.50;;;;;;;19.95;58.00;96665.13;10385917;28;20084;-22
2022/06/15 01:03:15;;;;;;;0.20;0.20;;;;;;;20.12;59.08;96662.47;10369019;28;20358;-21
2022/06/15 01:08:48;;;;;;;0.20;0.20;;;;;;;20.28;57.65;96661.50;10368978;28;20041;-21
2022/06/15 01:14:17;;;;;;;1.35;0.20;;;;;;;20.13;57.93;96659.06;10364270;28;20050;-21
2022/06/15 01:19:47;;;;;;;0.20;0.20;;;;;;;20.05;57.93;96671.00;10367547;28;20125;-21
2022/06/15 01:25:02;;;;;;;0.40;0.40;;;;;;;19.97;57.90;96660.88;10347250;28;20516;-21
2022/06/15 01:30:11;;;;;;;0.40;0.40;;;;;;;19.97;57.71;96658.31;10366552;28;20531;-21
2022/06/15 01:35:22;;;;;;;0.40;0.40;;;;;;;19.96;57.80;96668.47;10402172;28;20034;-21
2022/06/15 01:40:39;;;;;;;0.40;0.40;;;;;;;19.95;57.88;96661.72;10367930;28;20715;-21
2022/06/15 01:45:41;;;;;;;0.60;0.50;;;;;;;19.96;57.94;96665.94;10408221;28;20037;-21
2022/06/15 01:50:47;;;;;;;0.40;0.40;;;;;;;19.94;57.89;96668.47;10401109;28;20508;-21
2022/06/15 01:55:53;;;;;;;0.50;0.50;;;;;;;19.95;58.10;96670.19;10406512;28;20037;-21
2022/06/15 02:01:38;;;;;;;0.30;0.30;;;;;;;20.18;58.66;96667.53;10382816;28;20033;-21
2022/06/15 02:07:08;;;;;;;0.43;0.28;;;;;;;20.12;58.25;96665.88;10368594;28;20084;-21
2022/06/15 02:12:11;;;;;;;0.40;0.30;;;;;;;20.05;57.95;96658.28;10380758;28;20100;-21
2022/06/15 02:17:21;;;;;;;0.68;0.30;;;;;;;19.99;57.83;96655.75;10379247;28;20053;-22
2022/06/15 02:22:27;;;;;;;0.40;0.40;;;;;;;19.97;57.88;96657.47;10378834;28;20042;-21
2022/06/15 02:27:30;;;;;;;0.65;0.40;;;;;;;19.96;57.85;96650.69;10379814;28;20053;-21
2022/06/15 02:32:30;;;;;;;0.40;0.40;;;;;;;19.95;57.93;96638.84;10402584;28;20056;-22
2022/06/15 02:37:31;;;;;;;0.57;0.47;;;;;;;19.95;57.96;96638.84;10390215;28;20045;-21
2022/06/15 02:42:34;;;;;;;0.45;0.40;;;;;;;19.96;57.89;96643.06;10379034;28;20034;-21
2022/06/15 02:47:42;;;;;;;0.20;0.20;;;;;;;19.93;57.84;96638.03;10395890;28;20033;-21
2022/06/15 02:52:52;;;;;;;0.30;0.30;;;;;;;20.02;59.59;96645.56;10396416;28;20026;-21
2022/06/15 02:58:09;;;;;;;0.20;0.20;;;;;;;20.26;58.33;96638.63;10394719;28;20123;-21
2022/06/15 03:03:17;;;;;;;0.20;0.20;;;;;;;20.15;58.03;96647.19;10378648;28;20034;-22
2022/06/15 03:08:19;;;;;;;0.30;0.30;;;;;;;20.00;57.83;96632.06;10379606;28;20045;-21
2022/06/15 03:13:22;;;;;;;0.30;0.30;;;;;;;20.00;57.95;96648.13;10377966;28;20030;-22
2022/06/15 03:18:24;;;;;;;0.40;0.40;;;;;;;19.98;58.00;96639.66;10377214;28;20057;-23
2022/06/15 03:23:28;;;;;;;0.35;0.35;;;;;;;19.95;57.94;96631.22;10371544;28;20092;-21
2022/06/15 03:28:29;;;;;;;0.20;0.20;;;;;;;19.96;57.76;96635.44;10372794;28;20240;-22
2022/06/15 03:33:30;;;;;;;0.40;0.40;;;;;;;19.95;57.97;96644.78;10388263;28;20033;-22
2022/06/15 03:38:31;;;;;;;0.40;0.40;;;;;;;19.94;57.94;96640.53;10386838;28;20087;-20
2022/06/15 03:43:50;;;;;;;0.30;0.30;;;;;;;19.95;57.95;96642.25;10372161;28;20042;-21
2022/06/15 03:48:51;;;;;;;0.10;0.10;;;;;;;20.07;59.36;96637.09;10372256;28;20269;-22
2022/06/15 03:53:52;;;;;;;0.38;0.30;;;;;;;20.26;58.62;96642.88;10411561;28;20025;-22
2022/06/15 03:58:52;;;;;;;0.32;0.30;;;;;;;20.15;58.25;96632.81;10386436;28;20038;-21
2022/06/15 04:03:54;;;;;;;0.28;0.28;;;;;;;20.05;57.97;96633.72;10370312;28;20030;-22
2022/06/15 04:08:59;;;;;;;0.35;0.30;;;;;;;20.01;57.80;96634.56;10407728;28;20033;-21
2022/06/15 04:14:09;;;;;;;0.30;0.30;;;;;;;19.97;57.98;96637.13;10381856;28;20026;-22
2022/06/15 04:19:12;;;;;;;0.40;0.40;;;;;;;19.96;57.91;96633.75;10370286;28;20030;-22
2022/06/15 04:24:16;;;;;;;0.47;0.43;;;;;;;19.96;57.95;96638.84;10369720;28;20026;-21
2022/06/15 04:29:19;;;;;;;0.35;0.32;;;;;;;19.94;57.98;96643.06;10370278;28;20385;-21
2022/06/15 04:34:21;;;;;;;0.30;0.30;;;;;;;19.94;58.01;96638.00;10382412;28;20026;-21
2022/06/15 04:39:21;;;;;;;0.47;0.47;;;;;;;19.94;57.80;96649.88;10369398;28;20038;-21
2022/06/15 04:44:22;;;;;;;0.30;0.28;;;;;;;20.07;58.94;96654.03;10368581;28;20040;-21
2022/06/15 04:49:28;;;;;;;0.15;0.15;;;;;;;20.28;58.42;96658.97;10385541;28;20128;-21
2022/06/15 04:54:28;;;;;;;0.20;0.20;;;;;;;20.16;58.04;96653.97;10404365;28;20575;-21
2022/06/15 04:59:32;;;;;;;0.25;0.25;;;;;;;20.06;57.85;96657.44;10383979;28;20041;-22
2022/06/15 05:04:33;;;;;;;0.40;0.40;;;;;;;20.00;57.84;96657.47;10368154;28;20030;-21
2022/06/15 05:09:34;;;;;;;0.40;0.40;;;;;;;19.98;57.83;96664.22;10368575;28;20045;-21
2022/06/15 05:14:35;;;;;;;0.38;0.38;;;;;;;19.97;57.80;96657.47;10368955;28;20484;-22
2022/06/15 05:19:38;;;;;;;0.50;0.45;;;;;;;19.96;57.86;96671.03;10367835;28;20068;-21
2022/06/15 05:24:39;;;;;;;0.45;0.45;;;;;;;19.95;57.83;96669.34;10367328;28;20125;-24
2022/06/15 05:29:42;;;;;;;0.45;0.45;;;;;;;19.94;57.97;96662.56;10367449;28;20519;-21
2022/06/15 05:34:47;;;;;;;0.35;0.35;;;;;;;19.94;57.83;96671.03;10392532;28;20116;-21
2022/06/15 05:39:50;;;;;;;0.20;0.20;;;;;;;20.05;59.20;96676.06;10382821;28;20030;-21
2022/06/15 05:44:53;;;;;;;0.10;0.10;;;;;;;20.25;58.36;96676.81;10376692;28;20030;-21
2022/06/15 05:49:54;;;;;;;0.10;0.10;;;;;;;20.18;57.98;96680.22;10366833;28;20030;-22
2022/06/15 05:55:03;;;;;;;0.20;0.20;;;;;;;20.06;57.94;96686.25;10407828;28;20041;-21
2022/06/15 06:00:05;;;;;;;0.40;0.30;;;;;;;20.02;57.92;96696.41;10372361;28;20041;-21
2022/06/15 06:05:13;;;;;;;0.38;0.38;;;;;;;19.99;57.78;96696.41;10367593;28;20296;-21
2022/06/15 06:10:14;;;;;;;0.57;0.30;;;;;;;19.98;57.72;96697.25;10368029;28;20041;-21
2022/06/15 06:15:15;;;;;;;0.30;0.30;;;;;;;19.96;57.80;96698.97;10367169;28;20636;-22
2022/06/15 06:20:15;;;;;;;0.40;0.30;;;;;;;19.95;58.02;96692.22;10367412;28;20037;-22
2022/06/15 06:25:15;;;;;;;0.43;0.33;;;;;;;19.95;57.79;96694.75;10366941;28;20293;-23
2022/06/15 06:30:16;;;;;;;0.30;0.30;;;;;;;19.94;57.75;96698.16;10367015;28;20640;-21
2022/06/15 06:35:17;;;;;;;0.30;0.30;;;;;;;19.99;60.13;96697.25;10396723;28;20030;-21
2022/06/15 06:40:17;;;;;;;0.30;0.30;;;;;;;20.23;58.41;96697.13;10369166;28;20038;-21
2022/06/15 06:45:18;;;;;;;0.38;0.30;;;;;;;20.20;57.83;96693.78;10366598;28;20042;-21
2022/06/15 06:50:18;;;;;;;0.63;0.20;;;;;;;20.08;57.77;96697.25;10367346;28;20124;-21
2022/06/15 06:55:20;;;;;;;0.40;0.40;;;;;;;20.02;57.78;96702.31;10370486;28;20044;-21
2022/06/15 07:00:21;;;;;;;0.40;0.38;;;;;;;19.98;57.83;96707.44;10374334;28;20033;-21
2022/06/15 07:05:21;;;;;;;0.30;0.30;;;;;;;19.97;57.76;96703.19;10373150;28;20049;-20
2022/06/15 07:10:21;;;;;;;0.37;0.37;;;;;;;19.96;57.69;96706.59;10374593;28;20048;-21
2022/06/15 07:15:22;;;;;;;0.40;0.30;;;;;;;19.95;58.21;96712.53;10374175;28;20038;-21
2022/06/15 07:20:22;;;;;;;0.40;0.40;;;;;;;19.94;57.72;96710.84;10374246;28;20044;-22
2022/06/15 07:25:23;;;;;;;0.30;0.30;;;;;;;19.93;57.71;96701.56;10373389;28;20493;-22
2022/06/15 07:30:26;;;;;;;0.40;0.40;;;;;;;19.97;59.20;96713.38;10373198;28;20037;-21
2022/06/15 07:35:31;;;;;;;0.22;0.22;;;;;;;20.21;58.49;96708.16;10391781;28;20471;-23
2022/06/15 07:40:31;;;;;;;0.13;0.13;;;;;;;20.18;58.07;96715.81;10373192;28;20112;-21
2022/06/15 07:45:33;;;;;;;0.30;0.20;;;;;;;20.07;57.81;96710.81;10372156;28;20539;-21
2022/06/15 07:50:33;;;;;;;0.20;0.20;;;;;;;20.02;57.74;96725.19;10376286;28;20025;-21
2022/06/15 07:55:36;;;;;;;0.40;0.40;;;;;;;20.01;57.93;96720.13;10412760;28;20034;-21
2022/06/15 08:00:40;;;;;;;0.40;0.30;;;;;;;19.98;57.92;96720.13;10373123;28;20049;-21
2022/06/15 08:05:47;;;;;;;0.60;0.50;;;;;;;19.90;57.69;96702.41;10370839;28;20034;-22
2022/06/15 08:10:49;;;;;;;0.32;0.30;;;;;;;19.96;57.83;96712.53;10371366;28;20173;-22
2022/06/15 08:15:50;;;;;;;0.40;0.40;;;;;;;19.96;57.80;96704.91;10371325;28;20453;-21
2022/06/15 08:20:56;;;;;;;0.40;0.40;;;;;;;19.95;57.59;96713.41;10370651;28;20037;-22
2022/06/15 08:25:59;;;;;;;0.30;0.30;;;;;;;20.02;60.21;96707.41;10370953;28;20042;-21
2022/06/15 08:31:00;;;;;;;0.20;0.20;;;;;;;20.26;58.24;96714.06;10371163;28;20125;-21
2022/06/15 08:36:01;;;;;;;0.10;0.10;;;;;;;20.19;58.27;96714.97;10396950;28;20457;-21
2022/06/15 08:41:10;;;;;;;0.25;0.25;;;;;;;20.08;57.86;96714.19;10370435;28;20034;-21
2022/06/15 08:46:23;;;;;;;0.10;0.10;;;;;;;20.02;58.02;96706.56;10370609;28;20583;-21
2022/06/15 08:51:30;;;;;;;0.30;0.30;;;;;;;20.01;57.96;96723.50;10373127;28;20044;-21
2022/06/15 08:56:39;;;;;;;0.43;0.43;;;;;;;19.99;58.06;96724.34;10369821;28;20112;-21
2022/06/15 09:02:03;;;;;;;0.40;0.40;;;;;;;19.98;57.67;96725.22;10369611;28;20063;-21
2022/06/15 09:07:10;;;;;;;0.65;0.40;;;;;;;19.99;57.70;96722.69;10368949;28;20037;-22
2022/06/15 09:17:42;;;;;;;0.32;0.32;;;;;;;19.96;57.87;96730.34;10368018;28;20447;-23
2022/06/15 09:23:02;;;;;;;0.40;0.40;;;;;;;20.14;58.76;96716.69;10368163;28;20065;-22
2022/06/15 09:28:12;;;;;;;0.20;0.20;;;;;;;20.31;58.06;96718.28;10368710;28;20504;-21
2022/06/15 09:33:22;;;;;;;0.40;0.30;;;;;;;20.17;57.82;96716.69;10380242;28;20060;-21
2022/06/15 09:38:23;;;;;;;0.35;0.20;;;;;;;20.10;58.11;96725.19;10371099;28;20068;-21
2022/06/15 09:43:50;;;;;;;0.40;0.40;;;;;;;20.04;57.65;96715.91;10368645;28;20065;-22
2022/06/15 09:48:59;;;;;;;0.25;0.25;;;;;;;20.01;57.98;96710.78;10368532;28;20121;-21
2022/06/15 09:54:31;;;;;;;0.20;0.20;;;;;;;20.00;57.74;96715.91;10399910;28;20095;-21
2022/06/15 09:59:33;;;;;;;0.30;0.30;;;;;;;19.99;57.69;96712.50;10376890;28;20077;-21
2022/06/15 10:04:35;;;;;;;0.32;0.30;;;;;;;19.98;57.92;96715.06;10367140;28;20042;-21
2022/06/15 10:09:39;;;;;;;0.30;0.30;;;;;;;19.98;57.65;96720.13;10367829;28;20034;-21
2022/06/15 10:14:40;;;;;;;0.20;0.20;;;;;;;20.00;57.97;96718.44;10367302;28;20033;-21
2022/06/15 10:19:46;;;;;;;0.30;0.30;;;;;;;20.18;58.60;96709.03;10367155;28;20033;-21
2022/06/15 10:24:49;;;;;;;0.10;0.10;;;;;;;20.33;57.58;96710.63;10367427;28;20292;-21
2022/06/15 10:29:55;;;;;;;0.20;0.20;;;;;;;20.15;57.77;96708.19;10372038;28;20045;-20
2022/06/15 10:35:02;;;;;;;0.40;0.40;;;;;;;20.10;57.88;96700.59;10397259;28;20040;-21
2022/06/15 10:40:18;;;;;;;0.32;0.32;;;;;;;20.05;57.86;96704.88;10375109;28;20042;-21
2022/06/15 10:45:25;;;;;;;0.20;0.20;;;;;;;20.00;57.62;96709.13;10374614;28;20424;-21
2022/06/15 10:51:00;;;;;;;0.22;0.22;;;;;;;20.00;57.65;96698.13;10377918;28;20037;-21
2022/06/15 11:07:12;;;;;;;0.35;0.25;;;;;;;19.97;57.94;96686.28;10373437;28;20066;-21
2022/06/15 11:12:26;;;;;;;0.30;0.30;;;;;;;20.04;60.06;96685.41;10373934;28;20034;-21
2022/06/15 11:22:52;;;;;;;0.10;0.10;;;;;;;20.20;58.28;96678.53;10373348;28;20556;-21
2022/06/15 11:28:00;;;;;;;0.15;0.10;;;;;;;20.11;57.81;96681.13;10373087;28;20041;-21
2022/06/15 11:33:18;;;;;;;0.80;0.28;;;;;;;20.07;57.88;96687.06;10383936;28;20033;-21
2022/06/15 11:38:36;;;;;;;0.30;0.30;;;;;;;20.04;57.75;96679.44;10372582;28;20034;-22
2022/06/15 11:43:41;;;;;;;0.30;0.30;;;;;;;20.04;57.90;96679.44;10372354;28;20480;-21
2022/06/15 11:48:41;;;;;;;0.30;0.30;;;;;;;20.02;57.67;96676.06;10373000;28;20564;-22
2022/06/15 11:53:42;;;;;;;0.30;0.30;;;;;;;20.00;57.82;96672.72;10372669;28;20120;-22
2022/06/15 11:58:45;;;;;;;0.38;0.38;;;;;;;20.01;58.05;96676.94;10372666;28;20439;-22
2022/06/15 12:04:10;;;;;;;0.22;0.22;;;;;;;20.00;58.12;96675.25;10371985;28;20045;-21
2022/06/15 12:09:35;;;;;;;0.20;0.20;;;;;;;20.16;59.03;96669.22;10372110;28;20136;-21
2022/06/15 12:14:42;;;;;;;0.22;0.17;;;;;;;20.33;57.93;96665.69;10371150;28;20030;-21
2022/06/15 12:19:54;;;;;;;0.10;0.10;;;;;;;20.19;58.45;96666.66;10370998;28;20034;-22
2022/06/15 12:25:23;;;;;;;0.28;0.28;;;;;;;20.12;57.93;96667.56;10370983;28;20121;-21
2022/06/15 12:30:46;;;;;;;0.40;0.40;;;;;;;20.08;57.93;96665.91;10370465;28;20038;-21
2022/06/15 12:35:53;;;;;;;0.22;0.22;;;;;;;20.06;57.72;96667.59;10384344;28;20489;-21
2022/06/15 12:46:37;;;;;;;0.30;0.30;;;;;;;20.04;57.93;96669.28;10370063;28;20125;-21
2022/06/15 12:52:15;;;;;;;0.30;0.30;;;;;;;20.04;57.97;96664.19;10382413;28;20029;-21
2022/06/15 12:57:27;;;;;;;0.45;0.30;;;;;;;20.03;58.08;96667.59;10397072;28;20044;-21
2022/06/15 13:02:52;;;;;;;0.30;0.28;;;;;;;20.13;59.74;96659.94;10370080;28;20485;-21
2022/06/15 13:08:17;;;;;;;0.20;0.20;;;;;;;20.36;58.56;96662.28;10369306;28;20145;-21
2022/06/15 13:13:26;;;;;;;0.22;0.22;;;;;;;20.23;58.78;96665.78;10369266;28;20057;-21
2022/06/15 13:18:46;;;;;;;0.30;0.30;;;;;;;20.14;58.13;96658.22;10369030;28;20036;-21
2022/06/15 13:23:55;;;;;;;0.13;0.13;;;;;;;20.10;57.98;96657.41;10368948;28;20502;-21
2022/06/15 13:29:02;;;;;;;0.20;0.20;;;;;;;20.05;57.93;96651.53;10368603;28;20087;-21
2022/06/15 13:34:05;;;;;;;0.30;0.30;;;;;;;20.08;57.78;96645.56;10386241;28;20041;-21
2022/06/15 13:39:43;;;;;;;0.30;0.28;;;;;;;20.08;57.94;96650.66;10410156;28;20029;-21
2022/06/15 13:44:54;;;;;;;0.40;0.30;;;;;;;20.08;58.13;96655.75;10367716;28;20034;-21
2022/06/15 13:50:00;;;;;;;0.20;0.20;;;;;;;20.07;57.92;96654.88;10368348;28;20083;-22
2022/06/15 13:55:33;;;;;;;0.43;0.40;;;;;;;20.06;58.08;96648.13;10408856;28;20061;-21
2022/06/15 14:00:44;;;;;;;0.17;0.10;;;;;;;20.29;58.80;96645.41;10368008;28;20046;-21
2022/06/15 14:05:56;;;;;;;0.22;0.20;;;;;;;20.35;58.31;96646.19;10366971;28;20034;-20
2022/06/15 14:11:10;;;;;;;0.25;0.25;;;;;;;20.20;58.50;96640.38;10367686;28;20134;-21
2022/06/15 14:16:20;;;;;;;0.28;0.28;;;;;;;20.14;57.98;96641.28;10368102;28;20037;-21
2022/06/15 14:21:28;;;;;;;0.30;0.30;;;;;;;20.12;57.94;96642.16;10367510;28;20030;-21
2022/06/15 14:26:28;;;;;;;0.25;0.25;;;;;;;20.10;57.96;96629.44;10366637;28;20121;-22
2022/06/15 14:31:33;;;;;;;0.28;0.28;;;;;;;20.09;57.88;96632.00;10367501;28;20044;-21
2022/06/15 14:36:34;;;;;;;0.30;0.30;;;;;;;20.09;57.82;96634.56;10396303;28;20054;-21
2022/06/15 14:41:35;;;;;;;0.20;0.20;;;;;;;20.05;57.93;96625.25;10368043;28;20032;-21
2022/06/15 14:46:41;;;;;;;0.30;0.30;;;;;;;20.08;57.66;96620.16;10367470;28;20488;-21
2022/06/15 14:51:41;;;;;;;0.40;0.40;;;;;;;20.12;60.43;96627.75;10380573;28;20561;-21
2022/06/15 14:56:48;;;;;;;0.20;0.20;;;;;;;20.37;58.81;96620.75;10398382;28;20087;-21
2022/06/15 15:01:57;;;;;;;;;;;;;;;20.29;58.80;96614.88;10367169;28;20493;-21
2022/06/15 15:12:43;;;;;;;0.10;0.10;;;;;;;20.12;58.26;96616.72;10365866;28;20444;-22
2022/06/15 15:17:58;;;;;;;0.30;0.30;;;;;;;20.11;57.99;96620.13;10372208;28;20104;-20
2022/06/15 15:22:59;;;;;;;0.55;0.20;;;;;;;20.12;58.01;96619.25;10373333;28;20069;-22
2022/06/15 15:38:50;;;;;;;0.10;0.10;;;;;;;20.07;57.83;96608.28;10373003;28;20041;-21
2022/06/15 15:43:50;;;;;;;0.30;0.30;;;;;;;20.03;57.95;96596.44;10372787;28;20541;-21
2022/06/15 15:48:51;;;;;;;0.20;0.20;;;;;;;20.27;59.27;96593.72;10372529;28;20643;-21
2022/06/15 15:53:53;;;;;;;0.30;0.20;;;;;;;20.42;58.33;96586.78;10372188;28;20387;-21
2022/06/15 15:58:53;;;;;;;1.15;0.17;;;;;;;20.26;58.85;96584.41;10372082;28;20041;-21
2022/06/15 16:03:54;;;;;;;0.68;0.10;;;;;;;20.17;58.39;96574.34;10371809;28;20042;-21
2022/06/15 16:08:55;;;;;;;0.30;0.20;;;;;;;20.13;58.02;96568.44;10371485;28;20408;-20
2022/06/15 16:13:55;;;;;;;0.75;0.40;;;;;;;20.12;57.93;96560.81;10371387;28;20037;-21
2022/06/15 16:18:56;;;;;;;1.13;0.40;;;;;;;20.11;57.87;96562.50;10371512;28;20042;-21
2022/06/15 16:23:56;;;;;;;1.30;0.40;;;;;;;20.10;57.91;96563.34;10371240;28;20355;-21
2022/06/15 16:28:59;;;;;;;0.32;0.32;;;;;;;20.10;57.90;96572.69;10370486;28;20354;-21
2022/06/15 16:33:59;;;;;;;0.70;0.40;;;;;;;20.10;57.82;96568.44;10389184;28;20034;-20
2022/06/15 16:39:00;;;;;;;0.30;0.30;;;;;;;20.10;57.87;96572.69;10381151;28;20038;-21
2022/06/15 16:44:01;;;;;;;0.10;0.10;;;;;;;20.27;59.64;96568.31;10369682;28;20289;-20
2022/06/15 16:49:02;;;;;;;0.15;0.15;;;;;;;20.42;57.78;96571.53;10370234;28;20045;-21
2022/06/15 16:54:07;;;;;;;0.20;0.20;;;;;;;20.27;58.72;96575.94;10402418;28;20095;-21
2022/06/15 16:59:12;;;;;;;0.30;0.30;;;;;;;20.19;57.99;96572.63;10381971;28;20037;-22
2022/06/15 17:04:14;;;;;;;0.30;0.30;;;;;;;20.15;58.02;96576.88;10369071;28;20034;-22
2022/06/15 17:09:15;;;;;;;0.30;0.30;;;;;;;20.14;57.98;96570.13;10369583;28;20650;-21
2022/06/15 17:14:18;;;;;;;0.30;0.30;;;;;;;20.14;57.99;96574.34;10369665;28;20030;-21
2022/06/15 17:19:18;;;;;;;0.30;0.30;;;;;;;20.12;57.85;96571.84;10367922;28;20084;-21
2022/06/15 17:24:19;;;;;;;0.40;0.40;;;;;;;20.10;58.07;96573.53;10369072;28;20087;-21
2022/06/15 17:29:23;;;;;;;0.50;0.30;;;;;;;20.12;58.06;96570.97;10368486;28;20388;-21
2022/06/15 17:34:23;;;;;;;0.90;0.30;;;;;;;20.12;58.32;96568.44;10390493;28;20025;-21
2022/06/15 17:39:23;;;;;;;0.47;0.10;;;;;;;20.35;59.10;96579.25;10373731;28;20041;-22
2022/06/15 17:44:24;;;;;;;0.28;0.20;;;;;;;20.33;58.52;96563.16;10368271;28;20400;-22
2022/06/15 17:49:24;;;;;;;0.20;0.20;;;;;;;20.26;58.56;96579.31;10368611;28;20060;-22
2022/06/15 17:54:25;;;;;;;0.40;0.30;;;;;;;20.19;58.21;96570.06;10403764;28;20037;-20
2022/06/15 17:59:26;;;;;;;0.35;0.30;;;;;;;20.17;57.77;96576.88;10376955;28;20301;-21
2022/06/15 18:04:28;;;;;;;0.40;0.40;;;;;;;20.15;57.75;96583.66;10367593;28;20044;-22
2022/06/15 18:09:28;;;;;;;0.30;0.30;;;;;;;20.14;57.84;96584.50;10367066;28;20030;-21
2022/06/15 18:14:37;;;;;;;0.20;0.20;;;;;;;20.13;57.88;96582.81;10367018;28;20045;-20
2022/06/15 18:19:42;;;;;;;0.20;0.20;;;;;;;20.13;58.00;96593.00;10367158;28;20296;-20
2022/06/15 18:24:42;;;;;;;0.30;0.30;;;;;;;20.11;57.98;96587.09;10367415;28;20481;-21
2022/06/15 18:29:43;;;;;;;0.10;0.10;;;;;;;20.17;61.07;96587.03;10366722;28;20048;-22
2022/06/15 18:34:46;;;;;;;0.20;0.20;;;;;;;20.39;59.03;96587.66;10391541;28;20784;-21
2022/06/15 18:39:49;;;;;;;0.20;0.17;;;;;;;20.40;58.57;96591.06;10369086;28;20049;-21
2022/06/15 18:50:15;;;;;;;0.63;0.20;;;;;;;20.17;58.08;96589.59;10372798;28;20432;-22
2022/06/15 18:55:21;;;;;;;0.17;0.17;;;;;;;20.16;57.83;96593.81;10417499;28;20029;-22
2022/06/15 19:00:24;;;;;;;0.20;0.20;;;;;;;20.15;57.92;96601.44;10378221;28;20493;-22
2022/06/15 19:05:28;;;;;;;0.22;0.22;;;;;;;20.15;57.86;96601.44;10376371;28;20030;-21
2022/06/15 19:10:31;;;;;;;0.45;0.40;;;;;;;20.14;58.05;96595.53;10377956;28;20034;-21
2022/06/15 19:15:32;;;;;;;0.20;0.20;;;;;;;20.15;57.80;96601.44;10376784;28;20541;-21
2022/06/15 19:20:35;;;;;;;0.20;0.20;;;;;;;20.10;57.96;96598.13;10376037;28;20164;-22
2022/06/15 19:25:39;;;;;;;0.25;0.25;;;;;;;20.20;61.14;96610.75;10375171;28;20034;-20
2022/06/15 19:30:40;;;;;;;0.20;0.20;;;;;;;20.42;58.90;96620.69;10375049;28;20114;-21
2022/06/15 19:35:41;;;;;;;0.10;0.10;;;;;;;20.37;58.92;96628.38;10399598;28;20406;-21
2022/06/15 19:40:43;;;;;;;0.20;0.20;;;;;;;20.27;58.37;96637.78;10376101;28;20026;-21
2022/06/15 19:45:45;;;;;;;0.20;0.20;;;;;;;20.20;58.17;96642.94;10373804;28;20044;-21
2022/06/15 19:50:47;;;;;;;0.30;0.22;;;;;;;20.19;57.99;96653.97;10377749;28;20029;-21
2022/06/15 19:55:47;;;;;;;0.28;0.28;;;;;;;20.18;57.81;96662.44;10411531;28;20021;-21
2022/06/15 20:00:48;;;;;;;0.30;0.30;;;;;;;20.16;57.94;96664.13;10371100;28;20038;-23
2022/06/15 20:05:48;;;;;;;0.20;0.10;;;;;;;20.16;58.07;96667.53;10371250;28;20300;-23
2022/06/15 20:10:49;;;;;;;0.77;0.30;;;;;;;20.13;58.17;96664.16;10372103;28;20037;-21
2022/06/15 20:15:49;;;;;;;0.37;0.23;;;;;;;20.15;57.92;96670.94;10371105;28;20277;-21
2022/06/15 20:20:50;;;;;;;0.20;0.20;;;;;;;20.23;60.90;96676.81;10371013;28;20492;-21
2022/06/15 20:25:55;;;;;;;0.10;0.10;;;;;;;20.45;58.72;96678.31;10371518;28;20030;-21
2022/06/15 20:30:56;;;;;;;0.20;0.20;;;;;;;20.40;58.54;96674.97;10371133;28;20038;-22
2022/06/15 20:35:56;;;;;;;0.20;0.20;;;;;;;20.29;58.49;96683.53;10396987;28;20088;-24
2022/06/15 20:40:58;;;;;;;0.15;0.15;;;;;;;20.21;58.03;96677.66;10370928;28;20731;-22
2022/06/15 20:46:03;;;;;;;0.30;0.30;;;;;;;20.19;57.89;96689.53;10370517;28;20512;-22
2022/06/15 20:51:03;;;;;;;0.20;0.20;;;;;;;20.18;57.85;96688.69;10370296;28;20485;-21
2022/06/15 21:01:24;;;;;;;1.75;0.30;;;;;;;20.16;57.80;96699.72;10370107;28;20041;-21
2022/06/15 21:06:24;;;;;;;0.70;0.37;;;;;;;20.16;58.06;96694.63;10369211;28;20034;-21
2022/06/15 21:22:05;;;;;;;0.10;0.10;;;;;;;20.48;58.37;96699.47;10369300;28;20034;-21
2022/06/15 21:27:06;;;;;;;0.20;0.20;;;;;;;20.36;58.74;96697.88;10368115;28;20042;-22
2022/06/15 21:32:06;;;;;;;0.30;0.30;;;;;;;20.28;58.07;96699.66;10372260;28;20037;-21
2022/06/15 21:37:08;;;;;;;0.13;0.13;;;;;;;20.23;57.84;96709.84;10382148;28;20030;-21
2022/06/15 21:42:11;;;;;;;0.20;0.20;;;;;;;20.21;58.06;96708.16;10368620;28;20061;-22
2022/06/15 21:47:12;;;;;;;0.30;0.30;;;;;;;20.20;57.90;96711.56;10368188;28;20194;-21
2022/06/15 21:52:15;;;;;;;0.30;0.30;;;;;;;20.19;58.05;96704.81;10368101;28;20591;-21
2022/06/15 21:57:16;;;;;;;0.35;0.32;;;;;;;20.11;58.02;96689.59;10368421;28;20464;-21
2022/06/15 22:02:16;;;;;;;0.40;0.40;;;;;;;20.19;57.77;96702.25;10368076;28;20125;-21
2022/06/15 22:07:16;;;;;;;0.20;0.20;;;;;;;20.17;57.92;96706.50;10367387;28;20033;-20
2022/06/15 22:12:17;;;;;;;0.10;0.10;;;;;;;20.36;59.44;96713.16;10367872;28;20092;-21
2022/06/15 22:17:17;;;;;;;0.10;0.10;;;;;;;20.50;58.18;96704.53;10366900;28;20041;-19
2022/06/15 22:22:18;;;;;;;0.20;0.20;;;;;;;20.36;58.67;96697.88;10366979;28;20046;-20
2022/06/15 22:27:18;;;;;;;0.20;0.20;;;;;;;20.29;57.95;96701.31;10374838;28;20084;-20
2022/06/15 22:32:19;;;;;;;0.30;0.30;;;;;;;20.24;58.05;96700.50;10380185;28;20450;-21
2022/06/15 22:37:19;;;;;;;0.32;0.30;;;;;;;20.22;57.73;96709.84;10386915;28;20041;-21
2022/06/15 22:42:19;;;;;;;0.37;0.30;;;;;;;20.19;57.75;96699.72;10374653;28;20049;-21
2022/06/15 22:47:20;;;;;;;0.20;0.20;;;;;;;20.18;57.78;96687.88;10375112;28;20042;-20
2022/06/15 22:52:21;;;;;;;0.27;0.27;;;;;;;20.18;57.92;96693.78;10392603;28;20511;-20
2022/06/15 22:57:21;;;;;;;0.32;0.30;;;;;;;20.19;57.82;96694.63;10400910;28;20467;-22
2022/06/15 23:02:22;;;;;;;0.20;0.20;;;;;;;20.17;58.01;96681.91;10375357;28;20124;-22
2022/06/15 23:07:22;;;;;;;0.17;0.17;;;;;;;20.34;59.27;96686.91;10374150;28;20038;-21
2022/06/15 23:12:23;;;;;;;0.23;0.20;;;;;;;20.48;58.15;96678.28;10374455;28;20041;-22
2022/06/15 23:17:24;;;;;;;0.30;0.25;;;;;;;20.36;58.65;96680.09;10373957;28;20029;-20
2022/06/15 23:22:24;;;;;;;0.45;0.28;;;;;;;20.29;57.94;96683.53;10373685;28;20057;-21
2022/06/15 23:27:24;;;;;;;0.30;0.30;;;;;;;20.24;58.04;96681.03;10373342;28;20389;-21
2022/06/15 23:32:25;;;;;;;1.03;0.40;;;;;;;20.23;58.03;96697.13;10378932;28;20446;-21
2022/06/15 23:37:25;;;;;;;0.20;0.20;;;;;;;20.20;58.11;96686.16;10379125;28;20104;-23
2022/06/15 23:42:30;;;;;;;0.27;0.20;;;;;;;20.21;58.13;96688.69;10372309;28;20034;-22
2022/06/15 23:47:30;;;;;;;0.20;0.20;;;;;;;20.21;57.86;96683.59;10372749;28;20042;-22
2022/06/15 23:52:31;;;;;;;0.30;0.30;;;;;;;20.20;57.98;96686.16;10391739;28;20042;-21
2022/06/15 23:57:31;;;;;;;0.20;0.20;;;;;;;20.16;58.13;96677.69;10397705;28;20038;-21
